Time;durP1;ratioP1;P1;durP2;ratioP2;P2;SDS_P1;SDS_P2;PMS_P1;PMS_P2;Temp;Humidity;BMP_temperature;BMP_pressure;BME280_temperature;BME280_humidity;BME280_pressure;Samples;Min_cycle;Max_cycle;Signal;HPM_P1;HPM_P2
2021/04/06 00:00:00;;;;;;;6.47;2.03;;;0.70;67.70;;;;;;4942205;29;20062;-74
2021/04/06 00:02:27;;;;;;;9.35;2.00;;;0.70;68.20;;;;;;4949755;29;20027;-74
2021/04/06 00:04:55;;;;;;;4.80;1.67;;;0.70;68.50;;;;;;4955556;29;20038;-75
2021/04/06 00:07:22;;;;;;;9.82;2.08;;;0.60;68.70;;;;;;4952756;29;20066;-75
2021/04/06 00:09:53;;;;;;;5.18;2.05;;;0.60;69.00;;;;;;4943466;29;20472;-76
2021/04/06 00:12:19;;;;;;;9.55;2.30;;;0.60;69.20;;;;;;4942289;29;20050;-76
2021/04/06 00:14:46;;;;;;;6.13;2.00;;;0.60;69.10;;;;;;4941311;29;20033;-75
2021/04/06 00:17:15;;;;;;;5.55;1.70;;;0.60;69.10;;;;;;4942054;29;20377;-75
2021/04/06 00:19:44;;;;;;;6.03;1.90;;;0.50;69.20;;;;;;4940457;29;20110;-75
2021/04/06 00:22:12;;;;;;;6.18;2.10;;;0.50;69.80;;;;;;4940178;29;20496;-75
2021/04/06 00:24:43;;;;;;;6.85;2.10;;;0.40;70.20;;;;;;4938730;29;20416;-75
2021/04/06 00:27:09;;;;;;;6.97;2.40;;;0.40;70.40;;;;;;4938587;29;20432;-75
2021/04/06 00:29:36;;;;;;;6.45;2.33;;;0.40;70.30;;;;;;4938532;29;20027;-75
2021/04/06 00:32:04;;;;;;;8.73;2.22;;;0.30;70.00;;;;;;4938116;29;20027;-75
2021/04/06 00:34:32;;;;;;;6.05;1.67;;;0.30;70.00;;;;;;4937513;29;20388;-75
2021/04/06 00:37:03;;;;;;;5.43;2.40;;;0.30;70.00;;;;;;4937924;29;20019;-75
2021/04/06 00:39:32;;;;;;;6.72;2.17;;;0.20;69.80;;;;;;4938303;29;20020;-75
2021/04/06 00:42:08;;;;;;;8.57;2.10;;;0.20;69.80;;;;;;4938324;29;20058;-75
2021/04/06 00:44:47;;;;;;;4.22;2.00;;;0.20;69.60;;;;;;4955450;29;20038;-75
2021/04/06 00:47:14;;;;;;;9.27;2.05;;;0.10;69.60;;;;;;4938890;29;20030;-75
2021/04/06 00:49:42;;;;;;;6.75;1.70;;;0.10;69.80;;;;;;4938239;29;20023;-74
2021/04/06 00:52:10;;;;;;;5.15;1.85;;;0.00;69.80;;;;;;4938728;29;20047;-74
2021/04/06 00:54:36;;;;;;;8.48;2.13;;;0.00;69.80;;;;;;4937860;29;20038;-76
2021/04/06 00:57:04;;;;;;;7.60;3.30;;;-0.10;70.10;;;;;;4937844;29;20023;-74
2021/04/06 00:59:31;;;;;;;5.78;2.80;;;-0.10;70.50;;;;;;4937744;29;20032;-74
2021/04/06 01:01:59;;;;;;;14.55;4.10;;;-0.20;71.10;;;;;;4954789;29;20051;-74
2021/04/06 01:04:27;;;;;;;8.90;3.08;;;-0.20;71.30;;;;;;4937542;29;20559;-74
2021/04/06 01:06:56;;;;;;;9.13;3.70;;;-0.30;71.70;;;;;;4936965;28;20111;-74
2021/04/06 01:09:50;;;;;;;10.35;4.15;;;-0.30;71.80;;;;;;4937596;29;20031;-75
2021/04/06 01:12:21;;;;;;;7.78;2.83;;;-0.30;71.70;;;;;;4937204;29;20119;-74
2021/04/06 01:14:49;;;;;;;4.68;2.42;;;-0.30;71.50;;;;;;4937061;29;20380;-74
2021/04/06 01:17:18;;;;;;;8.75;3.08;;;-0.30;71.40;;;;;;4938615;29;20445;-74
2021/04/06 01:19:44;;;;;;;6.20;2.85;;;-0.40;71.30;;;;;;4940676;29;20086;-74
2021/04/06 01:22:13;;;;;;;9.23;3.00;;;-0.40;71.60;;;;;;4957765;29;20039;-75
2021/04/06 01:24:39;;;;;;;10.00;3.67;;;-0.50;71.60;;;;;;4940485;29;20054;-74
2021/04/06 01:27:12;;;;;;;11.50;3.78;;;-0.50;71.70;;;;;;4940724;29;20492;-74
2021/04/06 01:29:39;;;;;;;8.18;3.95;;;-0.60;71.60;;;;;;4940753;29;20499;-74
2021/04/06 01:32:05;;;;;;;12.68;3.13;;;-0.60;71.60;;;;;;4957877;29;20433;-74
2021/04/06 01:34:31;;;;;;;6.97;2.53;;;-0.60;71.50;;;;;;4940207;29;20027;-74
2021/04/06 01:36:58;;;;;;;8.20;2.70;;;-0.60;71.50;;;;;;4940357;29;20046;-74
2021/04/06 01:39:29;;;;;;;10.40;2.72;;;-0.60;71.90;;;;;;4940457;29;20484;-75
2021/04/06 01:42:00;;;;;;;7.93;2.60;;;-0.60;71.70;;;;;;4940333;29;20027;-73
2021/04/06 01:44:26;;;;;;;6.07;1.80;;;-0.60;71.50;;;;;;4940394;29;20031;-73
2021/04/06 01:46:53;;;;;;;4.32;2.10;;;-0.60;71.60;;;;;;4940411;29;20030;-73
2021/04/06 01:49:20;;;;;;;5.68;1.90;;;-0.60;71.30;;;;;;4957620;29;20031;-73
2021/04/06 01:51:46;;;;;;;8.25;2.50;;;-0.60;71.10;;;;;;4940122;29;20039;-74
2021/04/06 01:54:13;;;;;;;5.35;1.85;;;-0.60;70.90;;;;;;4940255;29;20042;-73
2021/04/06 01:56:56;;;;;;;3.58;1.85;;;-0.60;70.80;;;;;;4940045;29;20387;-73
2021/04/06 01:59:40;;;;;;;8.88;3.22;;;-0.60;70.60;;;;;;4940108;29;20358;-74
2021/04/06 02:02:08;;;;;;;6.00;2.22;;;-0.60;70.30;;;;;;4940219;29;20511;-73
2021/04/06 02:04:34;;;;;;;5.40;2.42;;;-0.70;70.00;;;;;;4939757;29;20435;-74
2021/04/06 02:07:00;;;;;;;7.90;3.13;;;-0.90;69.60;;;;;;4939916;29;20035;-74
2021/04/06 02:09:26;;;;;;;4.63;2.40;;;-1.00;69.60;;;;;;4940072;29;20074;-73
2021/04/06 02:11:53;;;;;;;7.65;2.50;;;-1.00;70.90;;;;;;4939562;29;20027;-73
2021/04/06 02:14:25;;;;;;;7.35;1.83;;;-1.00;70.30;;;;;;4939867;29;20030;-73
2021/04/06 02:17:01;;;;;;;7.15;2.65;;;-1.00;70.50;;;;;;4939459;29;20027;-73
2021/04/06 02:19:29;;;;;;;4.28;2.28;;;-1.00;70.80;;;;;;4939698;29;20030;-74
2021/04/06 02:22:00;;;;;;;4.75;2.05;;;-1.00;70.90;;;;;;4939825;29;20035;-73
2021/04/06 02:24:48;;;;;;;6.47;2.45;;;-0.90;71.10;;;;;;4939548;29;20183;-74
2021/04/06 02:27:18;;;;;;;5.85;2.35;;;-0.90;71.00;;;;;;4957337;28;20035;-74
2021/04/06 02:29:49;;;;;;;7.43;2.65;;;-0.90;70.80;;;;;;4956175;28;20028;-73
2021/04/06 02:32:16;;;;;;;8.52;2.67;;;-0.90;70.60;;;;;;4940716;29;20118;-73
2021/04/06 02:34:47;;;;;;;6.95;2.55;;;-0.90;69.90;;;;;;4942786;29;20094;-73
2021/04/06 02:37:19;;;;;;;3.65;2.53;;;-1.10;68.90;;;;;;4948202;29;20023;-73
2021/04/06 02:39:46;;;;;;;5.85;2.67;;;-1.20;68.90;;;;;;4969482;29;20027;-74
2021/04/06 02:42:32;;;;;;;4.50;2.72;;;-1.30;69.40;;;;;;4958266;29;20039;-74
2021/04/06 02:45:09;;;;;;;6.07;2.47;;;-1.30;69.70;;;;;;4939562;29;20031;-73
2021/04/06 02:47:43;;;;;;;5.00;2.30;;;-1.40;69.80;;;;;;4939203;29;20031;-74
2021/04/06 02:50:13;;;;;;;7.53;2.25;;;-1.40;70.20;;;;;;4939350;29;20055;-73
2021/04/06 02:52:39;;;;;;;9.23;2.63;;;-1.40;70.30;;;;;;4938934;29;20023;-72
2021/04/06 02:55:08;;;;;;;8.90;2.75;;;-1.50;70.40;;;;;;4956245;28;20035;-73
2021/04/06 02:57:33;;;;;;;7.57;2.50;;;-1.50;70.50;;;;;;4938841;29;20050;-73
2021/04/06 02:59:59;;;;;;;8.65;3.00;;;-1.50;70.60;;;;;;4938771;29;20051;-75
2021/04/06 03:02:25;;;;;;;8.52;3.25;;;-1.50;71.30;;;;;;4956085;29;20035;-75
2021/04/06 03:04:50;;;;;;;5.90;2.60;;;-1.50;70.50;;;;;;4938658;29;20117;-76
2021/04/06 03:07:23;;;;;;;5.65;2.78;;;-1.50;71.20;;;;;;4938630;28;20086;-73
2021/04/06 03:09:57;;;;;;;7.22;2.97;;;-1.50;70.50;;;;;;4938631;29;20477;-73
2021/04/06 03:12:30;;;;;;;7.35;3.47;;;-1.50;70.50;;;;;;4956000;29;20357;-73
2021/04/06 03:14:58;;;;;;;5.75;2.35;;;-1.60;70.60;;;;;;4955924;29;20023;-73
2021/04/06 03:17:25;;;;;;;11.18;3.00;;;-1.70;70.90;;;;;;4955717;29;20019;-73
2021/04/06 03:19:58;;;;;;;8.50;2.78;;;-1.60;70.90;;;;;;4955744;29;20043;-73
2021/04/06 03:22:28;;;;;;;10.70;4.43;;;-1.80;70.90;;;;;;4955479;29;20035;-74
2021/04/06 03:24:55;;;;;;;13.68;4.38;;;-2.00;70.70;;;;;;4938242;29;20027;-75
2021/04/06 03:27:29;;;;;;;10.95;3.92;;;-2.10;70.70;;;;;;4938154;29;20085;-73
2021/04/06 03:29:56;;;;;;;7.40;3.28;;;-2.20;70.90;;;;;;4938378;29;20504;-74
2021/04/06 03:32:23;;;;;;;4.93;2.20;;;-2.30;71.30;;;;;;4938204;29;20031;-74
2021/04/06 03:34:49;;;;;;;6.50;2.55;;;-2.30;71.70;;;;;;4938050;29;20081;-73
2021/04/06 03:37:15;;;;;;;13.05;3.83;;;-2.20;71.80;;;;;;4955605;29;20106;-73
2021/04/06 03:39:41;;;;;;;11.93;5.40;;;-2.20;71.70;;;;;;4955215;28;20035;-75
2021/04/06 03:42:07;;;;;;;16.70;4.93;;;-2.10;71.70;;;;;;4938240;29;20563;-74
2021/04/06 03:44:33;;;;;;;11.50;4.53;;;-2.10;72.10;;;;;;4937612;29;20063;-73
2021/04/06 03:47:01;;;;;;;9.13;4.22;;;-2.00;71.90;;;;;;4937977;29;20023;-75
2021/04/06 03:49:29;;;;;;;12.65;4.55;;;-2.10;71.80;;;;;;4955235;29;20102;-75
2021/04/06 03:51:56;;;;;;;9.45;4.22;;;-2.00;71.70;;;;;;4937945;29;20081;-75
2021/04/06 03:54:28;;;;;;;15.45;4.18;;;-2.00;71.40;;;;;;4937852;29;20046;-75
2021/04/06 03:56:53;;;;;;;10.18;3.42;;;-2.10;71.20;;;;;;4938073;29;20042;-75
2021/04/06 03:59:21;;;;;;;6.90;3.20;;;-2.00;70.90;;;;;;4937879;29;20049;-75
2021/04/06 04:01:47;;;;;;;7.93;2.65;;;-2.00;70.70;;;;;;4937681;29;20063;-74
2021/04/06 04:04:14;;;;;;;10.50;2.15;;;-2.00;70.30;;;;;;4937775;29;20023;-75
2021/04/06 04:06:40;;;;;;;6.18;1.75;;;-2.10;70.30;;;;;;4937290;29;20031;-75
2021/04/06 04:09:05;;;;;;;10.38;1.90;;;-2.00;70.20;;;;;;4954760;28;20047;-75
2021/04/06 04:11:31;;;;;;;11.07;1.98;;;-2.00;70.20;;;;;;4937528;29;20536;-74
2021/04/06 04:13:56;;;;;;;7.95;1.60;;;-2.00;70.30;;;;;;4937813;29;20074;-75
2021/04/06 04:16:22;;;;;;;4.45;1.73;;;-2.00;70.50;;;;;;4937700;29;20075;-75
2021/04/06 04:18:50;;;;;;;7.00;2.40;;;-1.90;70.60;;;;;;4937653;29;20027;-74
2021/04/06 04:21:16;;;;;;;8.32;2.35;;;-1.80;70.30;;;;;;4937651;29;20023;-74
2021/04/06 04:23:42;;;;;;;4.70;1.85;;;-1.80;70.00;;;;;;4937460;29;20062;-75
2021/04/06 04:26:08;;;;;;;8.55;2.10;;;-1.70;69.90;;;;;;4937325;29;20043;-75
2021/04/06 04:28:33;;;;;;;13.02;2.28;;;-1.80;69.50;;;;;;4937553;29;20023;-75
2021/04/06 04:31:05;;;;;;;8.10;2.00;;;-1.80;69.70;;;;;;4937393;29;20027;-75
2021/04/06 04:33:30;;;;;;;13.88;2.60;;;-1.80;69.80;;;;;;4954723;29;20164;-75
2021/04/06 04:35:56;;;;;;;8.18;2.38;;;-1.80;69.60;;;;;;4954778;29;20488;-75
2021/04/06 04:38:21;;;;;;;6.00;1.95;;;-1.80;69.40;;;;;;4937334;29;20019;-75
2021/04/06 04:40:47;;;;;;;7.18;2.00;;;-1.90;69.30;;;;;;4937887;29;20066;-75
2021/04/06 04:43:13;;;;;;;8.20;2.83;;;-1.90;69.60;;;;;;4937711;29;20376;-75
2021/04/06 04:45:39;;;;;;;9.00;2.15;;;-1.90;69.70;;;;;;4937164;29;20369;-75
2021/04/06 04:48:06;;;;;;;6.95;2.20;;;-1.90;69.70;;;;;;4954837;28;20035;-75
2021/04/06 04:50:33;;;;;;;9.98;2.03;;;-1.80;69.50;;;;;;4954564;29;20030;-75
2021/04/06 04:52:58;;;;;;;10.32;1.77;;;-1.80;69.10;;;;;;4957337;28;20476;-74
2021/04/06 04:55:26;;;;;;;12.32;2.17;;;-1.70;68.70;;;;;;4958583;28;20106;-74
2021/04/06 04:57:52;;;;;;;9.68;1.88;;;-1.70;68.50;;;;;;4941440;29;20023;-75
2021/04/06 05:00:18;;;;;;;10.85;2.53;;;-1.70;68.20;;;;;;4941507;29;20028;-75
2021/04/06 05:02:44;;;;;;;15.00;3.55;;;-1.60;68.00;;;;;;4940654;29;20047;-75
2021/04/06 05:05:14;;;;;;;11.82;3.47;;;-1.50;67.70;;;;;;4960023;29;20087;-75
2021/04/06 05:07:40;;;;;;;12.43;2.10;;;-1.50;67.40;;;;;;4951910;29;20584;-75
2021/04/06 05:10:09;;;;;;;7.50;1.75;;;-1.50;66.90;;;;;;4959005;29;20039;-75
2021/04/06 05:12:35;;;;;;;8.70;3.33;;;-1.50;66.70;;;;;;4942575;29;20082;-74
2021/04/06 05:15:02;;;;;;;8.75;2.13;;;-1.40;66.60;;;;;;4942758;29;20023;-74
2021/04/06 05:17:27;;;;;;;17.38;3.40;;;-1.40;67.20;;;;;;4962123;29;20031;-76
2021/04/06 05:19:53;;;;;;;12.85;2.05;;;-1.40;66.30;;;;;;4941020;29;20096;-75
2021/04/06 05:22:19;;;;;;;9.45;2.30;;;-1.30;66.00;;;;;;4940715;29;20477;-75
2021/04/06 05:24:44;;;;;;;8.93;1.40;;;-1.30;65.90;;;;;;4940619;29;20434;-75
2021/04/06 05:27:10;;;;;;;9.23;2.00;;;-1.30;66.20;;;;;;4957535;29;20066;-75
2021/04/06 05:29:35;;;;;;;16.83;2.40;;;-1.20;65.80;;;;;;4957637;29;20125;-75
2021/04/06 05:32:01;;;;;;;16.90;2.55;;;-1.10;65.60;;;;;;4940425;29;20027;-75
2021/04/06 05:34:28;;;;;;;12.13;2.13;;;-1.00;65.40;;;;;;4957614;29;20103;-74
2021/04/06 05:36:54;;;;;;;9.90;2.00;;;-1.00;65.00;;;;;;4940445;29;20034;-75
2021/04/06 05:39:19;;;;;;;9.73;2.10;;;-0.90;64.80;;;;;;4940177;29;20106;-75
2021/04/06 05:41:46;;;;;;;12.55;2.63;;;-0.80;64.50;;;;;;4940202;29;20031;-75
2021/04/06 05:44:14;;;;;;;9.55;1.70;;;-0.80;64.40;;;;;;4940188;29;20024;-75
2021/04/06 05:46:42;;;;;;;10.30;2.15;;;-0.90;64.60;;;;;;4940023;29;20047;-75
2021/04/06 05:49:11;;;;;;;8.55;1.77;;;-0.80;64.40;;;;;;4957189;29;20473;-74
2021/04/06 05:51:39;;;;;;;12.18;1.63;;;-0.80;64.00;;;;;;4939896;29;20031;-75
2021/04/06 05:54:06;;;;;;;11.13;2.13;;;-0.80;64.00;;;;;;4956984;29;20066;-75
2021/04/06 05:56:32;;;;;;;9.60;2.10;;;-0.80;64.10;;;;;;4939708;29;20027;-76
2021/04/06 05:58:58;;;;;;;11.55;2.60;;;-0.90;64.60;;;;;;4939771;29;20388;-75
2021/04/06 06:01:29;;;;;;;15.50;2.90;;;-0.90;65.20;;;;;;4956640;28;20524;-75
2021/04/06 06:03:55;;;;;;;12.73;2.60;;;-0.80;65.50;;;;;;4938253;29;20038;-74
2021/04/06 06:06:22;;;;;;;15.10;5.93;;;-0.60;65.50;;;;;;4956753;29;20463;-75
2021/04/06 06:08:55;;;;;;;18.13;3.00;;;-0.60;65.40;;;;;;4939507;29;20047;-75
2021/04/06 06:11:21;;;;;;;9.55;2.20;;;-0.60;65.40;;;;;;4956623;29;20046;-76
2021/04/06 06:13:46;;;;;;;7.35;2.50;;;-0.40;65.50;;;;;;4940048;29;20087;-76
2021/04/06 06:16:21;;;;;;;14.80;3.10;;;-0.30;65.60;;;;;;4939839;29;20035;-75
2021/04/06 06:19:00;;;;;;;15.32;4.47;;;-0.30;64.10;;;;;;4956475;29;20480;-74
2021/04/06 06:21:47;;;;;;;14.18;4.88;;;-0.10;63.90;;;;;;4939239;29;20062;-74
2021/04/06 06:24:26;;;;;;;9.77;2.90;;;-0.10;63.20;;;;;;4956474;29;20027;-73
2021/04/06 06:26:55;;;;;;;14.55;3.40;;;-0.10;62.70;;;;;;4939180;29;20485;-74
2021/04/06 06:29:23;;;;;;;10.93;2.53;;;-0.10;62.80;;;;;;4975132;28;20069;-76
2021/04/06 06:31:51;;;;;;;10.95;2.40;;;0.00;62.50;;;;;;4961482;28;20026;-75
2021/04/06 06:34:22;;;;;;;11.02;2.20;;;0.10;61.90;;;;;;4958474;28;20088;-76
2021/04/06 06:37:03;;;;;;;11.38;2.38;;;0.10;61.50;;;;;;4975842;28;20031;-76
2021/04/06 06:39:28;;;;;;;10.98;2.38;;;0.20;61.50;;;;;;4958153;28;20022;-75
2021/04/06 06:42:04;;;;;;;11.15;2.40;;;0.20;61.70;;;;;;4958353;28;20495;-75
2021/04/06 06:44:31;;;;;;;12.75;3.38;;;0.00;61.90;;;;;;4975338;28;20596;-75
2021/04/06 06:47:27;;;;;;;15.25;3.28;;;0.00;63.10;;;;;;4975482;28;20035;-74
2021/04/06 06:49:55;;;;;;;8.05;2.50;;;0.00;62.90;;;;;;4957812;28;20140;-75
2021/04/06 06:52:24;;;;;;;15.20;4.90;;;0.10;62.70;;;;;;4975331;28;20034;-73
2021/04/06 06:54:52;;;;;;;15.88;3.63;;;0.30;62.50;;;;;;4958130;28;20391;-74
2021/04/06 06:57:18;;;;;;;8.90;2.85;;;0.40;61.80;;;;;;4975293;28;20023;-74
2021/04/06 06:59:46;;;;;;;15.75;4.10;;;0.30;61.70;;;;;;4957639;28;20048;-74
2021/04/06 07:02:31;;;;;;;15.40;2.80;;;0.30;62.70;;;;;;4975073;28;20031;-74
2021/04/06 07:05:29;;;;;;;18.88;5.93;;;0.20;62.80;;;;;;4975107;28;20073;-74
2021/04/06 07:08:04;;;;;;;18.52;7.20;;;0.20;62.80;;;;;;4916300;28;20138;-76
2021/04/06 07:10:34;;;;;;;15.65;4.00;;;0.20;63.10;;;;;;4957540;28;20105;-75
2021/04/06 07:13:11;;;;;;;10.60;3.88;;;0.30;63.40;;;;;;4974812;28;20031;-76
2021/04/06 07:15:41;;;;;;;10.95;2.88;;;0.40;63.90;;;;;;4957267;28;20027;-75
2021/04/06 07:18:22;;;;;;;5.90;2.42;;;0.40;63.40;;;;;;4957501;28;20476;-75
2021/04/06 07:20:51;;;;;;;13.93;3.80;;;0.50;63.10;;;;;;4974943;28;20102;-75
2021/04/06 07:23:29;;;;;;;19.10;5.07;;;0.50;63.10;;;;;;4957464;28;20089;-75
2021/04/06 07:25:55;;;;;;;12.40;3.30;;;0.20;63.60;;;;;;4957498;28;20031;-75
2021/04/06 07:28:21;;;;;;;16.13;3.35;;;0.20;64.20;;;;;;4974754;28;20027;-75
2021/04/06 07:30:48;;;;;;;14.50;2.90;;;0.10;64.90;;;;;;4974931;28;20491;-76
2021/04/06 07:33:15;;;;;;;11.02;3.13;;;0.20;65.10;;;;;;4957236;28;20480;-76
2021/04/06 07:35:42;;;;;;;15.73;3.60;;;0.30;64.90;;;;;;4957054;28;20046;-75
2021/04/06 07:38:08;;;;;;;15.35;3.75;;;0.40;65.00;;;;;;4974442;28;20384;-75
2021/04/06 07:40:34;;;;;;;12.65;4.00;;;0.40;64.90;;;;;;4957108;28;20023;-74
2021/04/06 07:43:04;;;;;;;8.77;2.63;;;0.50;64.70;;;;;;4957204;28;20080;-73
2021/04/06 07:45:30;;;;;;;9.90;2.90;;;0.50;64.00;;;;;;4974512;28;20030;-74
2021/04/06 07:47:56;;;;;;;10.77;2.80;;;0.40;63.90;;;;;;4957982;28;20038;-73
2021/04/06 07:50:39;;;;;;;18.02;5.18;;;0.20;64.50;;;;;;4977675;28;20106;-74
2021/04/06 07:53:20;;;;;;;10.82;2.72;;;0.10;65.40;;;;;;4987150;28;20083;-74
2021/04/06 07:55:46;;;;;;;14.65;3.55;;;0.20;65.60;;;;;;4982942;28;20019;-75
2021/04/06 07:58:51;;;;;;;10.15;2.70;;;0.10;66.00;;;;;;4975100;28;20035;-74
2021/04/06 08:01:29;;;;;;;14.70;3.85;;;0.40;65.80;;;;;;4956821;28;20026;-75
2021/04/06 08:03:57;;;;;;;10.85;3.72;;;0.30;65.60;;;;;;4974029;28;20026;-76
2021/04/06 08:06:25;;;;;;;17.25;3.83;;;0.40;66.20;;;;;;4956669;28;20051;-75
2021/04/06 08:08:51;;;;;;;17.88;4.38;;;0.40;66.60;;;;;;4973961;28;20051;-74
2021/04/06 08:11:17;;;;;;;18.80;4.55;;;0.70;66.50;;;;;;4974105;28;20039;-74
2021/04/06 08:13:44;;;;;;;13.70;3.63;;;0.80;66.00;;;;;;4973857;28;20027;-74
2021/04/06 08:16:15;;;;;;;15.02;2.67;;;0.90;65.40;;;;;;4973627;28;20018;-74
2021/04/06 08:19:04;;;;;;;11.98;2.75;;;1.00;64.60;;;;;;4956120;28;20121;-73
2021/04/06 08:21:30;;;;;;;12.48;2.50;;;1.00;65.10;;;;;;4973675;28;20034;-74
2021/04/06 08:23:55;;;;;;;10.30;3.17;;;1.20;63.90;;;;;;4973945;28;20066;-73
2021/04/06 08:26:29;;;;;;;12.82;2.28;;;1.40;62.70;;;;;;4955990;28;20035;-74
2021/04/06 08:29:22;;;;;;;15.27;2.30;;;1.60;61.90;;;;;;4977989;28;20025;-74
2021/04/06 08:32:14;;;;;;;9.05;1.90;;;1.60;61.50;;;;;;4960398;28;20090;-73
2021/04/06 08:34:54;;;;;;;12.45;2.33;;;1.70;61.00;;;;;;4960614;28;20027;-74
2021/04/06 08:37:33;;;;;;;5.97;2.35;;;1.80;60.60;;;;;;4977656;28;20054;-74
2021/04/06 08:39:58;;;;;;;7.38;1.63;;;1.70;60.70;;;;;;4960455;28;20057;-74
2021/04/06 08:42:24;;;;;;;13.45;2.63;;;1.40;61.10;;;;;;4977668;28;20492;-74
2021/04/06 08:44:58;;;;;;;9.20;2.53;;;1.40;61.90;;;;;;4977432;28;20475;-75
2021/04/06 08:47:46;;;;;;;9.82;2.15;;;1.40;61.50;;;;;;4977593;28;20066;-75
2021/04/06 08:50:18;;;;;;;12.95;2.40;;;1.50;62.00;;;;;;4960415;28;20105;-75
2021/04/06 08:52:46;;;;;;;8.38;2.30;;;1.60;62.50;;;;;;4977551;28;20053;-74
2021/04/06 08:55:15;;;;;;;12.48;2.03;;;1.70;63.80;;;;;;4960211;28;20484;-74
2021/04/06 08:57:42;;;;;;;15.70;2.25;;;1.80;62.60;;;;;;4960095;28;20027;-74
2021/04/06 09:00:10;;;;;;;13.65;2.80;;;1.70;61.50;;;;;;4960094;28;20087;-74
2021/04/06 09:02:36;;;;;;;7.65;2.38;;;1.50;62.00;;;;;;4960064;28;20126;-74
2021/04/06 09:05:02;;;;;;;15.85;4.85;;;1.60;61.40;;;;;;4959925;28;20126;-74
2021/04/06 09:07:29;;;;;;;9.65;2.60;;;1.40;62.20;;;;;;4959389;28;20043;-74
2021/04/06 09:10:05;;;;;;;11.15;3.47;;;1.60;62.00;;;;;;4959864;28;20035;-75
2021/04/06 09:12:36;;;;;;;16.58;2.65;;;1.60;62.20;;;;;;4959489;28;20433;-74
2021/04/06 09:15:04;;;;;;;9.77;2.75;;;1.50;63.60;;;;;;4959921;28;20066;-74
2021/04/06 09:17:32;;;;;;;16.02;2.58;;;1.50;63.40;;;;;;4959854;28;20031;-74
2021/04/06 09:19:59;;;;;;;18.63;2.97;;;1.40;63.60;;;;;;4977071;28;20039;-74
2021/04/06 09:22:25;;;;;;;13.90;2.33;;;1.40;63.00;;;;;;4959640;28;20420;-74
2021/04/06 09:24:51;;;;;;;10.68;2.70;;;1.40;63.50;;;;;;4959393;28;20409;-75
2021/04/06 09:27:17;;;;;;;10.60;2.70;;;1.80;63.80;;;;;;4977093;28;20042;-74
2021/04/06 09:29:45;;;;;;;10.15;2.22;;;2.00;62.60;;;;;;4976601;28;20121;-75
2021/04/06 09:32:14;;;;;;;8.02;1.92;;;2.00;60.70;;;;;;4977185;28;20031;-75
2021/04/06 09:34:43;;;;;;;14.95;4.70;;;1.70;60.80;;;;;;4976770;28;20035;-74
2021/04/06 09:37:14;;;;;;;14.50;3.15;;;1.70;61.20;;;;;;4960624;28;20030;-74
2021/04/06 09:39:43;;;;;;;7.13;2.53;;;2.00;60.60;;;;;;4977274;28;20058;-75
2021/04/06 09:42:10;;;;;;;6.47;1.50;;;2.00;59.90;;;;;;4964239;28;20026;-75
2021/04/06 09:44:38;;;;;;;10.57;2.40;;;1.90;59.60;;;;;;4960739;28;20027;-75
2021/04/06 09:47:12;;;;;;;7.68;1.60;;;1.80;58.70;;;;;;4980065;28;20034;-75
2021/04/06 09:49:40;;;;;;;11.25;2.03;;;1.90;58.50;;;;;;4964622;28;20030;-75
2021/04/06 09:52:18;;;;;;;12.57;2.30;;;2.00;58.60;;;;;;4978110;28;20026;-75
2021/04/06 09:54:51;;;;;;;6.22;1.55;;;2.00;59.20;;;;;;4980488;28;20031;-75
2021/04/06 09:57:17;;;;;;;6.63;2.25;;;1.90;59.50;;;;;;4977623;28;20023;-75
2021/04/06 09:59:45;;;;;;;10.13;2.20;;;1.80;59.80;;;;;;4960035;28;20495;-75
2021/04/06 10:02:37;;;;;;;14.00;2.58;;;1.50;60.30;;;;;;4976455;28;20019;-74
2021/04/06 10:05:05;;;;;;;12.73;2.97;;;1.50;61.10;;;;;;4972180;28;20073;-80
2021/04/06 10:07:33;;;;;;;10.02;2.13;;;2.40;76.20;;;;;;4984340;28;20035;-78
2021/04/06 10:10:16;;;;;;;7.85;2.60;;;2.70;67.40;;;;;;4983724;28;20121;-78
2021/04/06 10:12:43;;;;;;;6.20;1.90;;;3.00;64.20;;;;;;4992174;28;20026;-78
2021/04/06 10:15:25;;;;;;;6.90;1.67;;;3.40;61.20;;;;;;4977721;28;20022;-77
2021/04/06 10:17:51;;;;;;;7.85;2.45;;;4.00;58.40;;;;;;4978226;28;20109;-77
2021/04/06 10:20:20;;;;;;;11.10;2.55;;;4.80;55.60;;;;;;4995072;28;20045;-79
2021/04/06 10:22:54;;;;;;;9.85;1.80;;;4.80;53.40;;;;;;4978199;28;20023;-78
2021/04/06 10:25:23;;;;;;;9.02;1.92;;;5.00;52.30;;;;;;4995301;28;20121;-78
2021/04/06 10:27:50;;;;;;;8.45;2.15;;;5.20;51.40;;;;;;4977562;28;20026;-78
2021/04/06 10:30:26;;;;;;;6.18;1.90;;;5.50;49.60;;;;;;4977760;28;20027;-78
2021/04/06 10:33:02;;;;;;;9.38;1.88;;;5.50;49.20;;;;;;4977743;28;20025;-78
2021/04/06 10:35:32;;;;;;;9.98;2.08;;;5.70;48.50;;;;;;4961573;28;20031;-80
2021/04/06 10:38:01;;;;;;;6.93;1.88;;;4.90;48.50;;;;;;4995088;28;20034;-79
2021/04/06 10:40:29;;;;;;;6.95;2.15;;;5.00;49.40;;;;;;5124763;23;20018;-77
2021/04/06 10:43:06;;;;;;;9.88;2.35;;;5.10;50.00;;;;;;4980418;28;20042;-78
2021/04/06 10:45:35;;;;;;;9.88;2.75;;;5.40;49.00;;;;;;4996495;28;20030;-78
2021/04/06 10:48:06;;;;;;;6.90;1.88;;;5.10;48.90;;;;;;4995236;28;20028;-75
2021/04/06 10:50:33;;;;;;;10.43;2.25;;;4.60;49.90;;;;;;4994236;28;20022;-74
2021/04/06 10:52:58;;;;;;;7.15;2.50;;;4.10;50.60;;;;;;4995313;28;20126;-74
2021/04/06 10:55:37;;;;;;;17.25;7.32;;;4.10;51.00;;;;;;4977540;28;20471;-75
2021/04/06 10:58:04;;;;;;;8.13;3.13;;;4.00;52.70;;;;;;4994899;28;20027;-75
2021/04/06 11:00:30;;;;;;;9.82;4.25;;;4.30;53.30;;;;;;4994869;28;20086;-75
2021/04/06 11:03:13;;;;;;;8.02;2.60;;;4.50;51.70;;;;;;4994772;28;20077;-75
2021/04/06 11:05:40;;;;;;;9.32;1.75;;;4.50;50.40;;;;;;4998517;28;20030;-75
2021/04/06 11:08:23;;;;;;;11.55;2.97;;;4.30;51.20;;;;;;5000552;28;20067;-75
2021/04/06 11:10:51;;;;;;;8.60;2.20;;;3.80;52.80;;;;;;4994352;28;20137;-74
2021/04/06 11:13:17;;;;;;;8.88;1.67;;;3.70;52.60;;;;;;4994309;28;20415;-75
2021/04/06 11:15:43;;;;;;;7.10;1.80;;;3.70;52.40;;;;;;4994409;28;20033;-74
2021/04/06 11:18:10;;;;;;;7.78;2.20;;;3.60;52.40;;;;;;4994386;28;20061;-74
2021/04/06 11:20:36;;;;;;;11.70;2.17;;;3.40;52.80;;;;;;4976806;28;20026;-75
2021/04/06 11:23:03;;;;;;;9.18;2.22;;;2.80;54.00;;;;;;4976921;28;20023;-74
2021/04/06 11:25:28;;;;;;;11.77;2.40;;;2.70;56.20;;;;;;4994061;28;20121;-74
2021/04/06 11:27:58;;;;;;;9.50;2.30;;;2.70;57.30;;;;;;4994538;28;20094;-75
2021/04/06 11:30:31;;;;;;;7.63;2.40;;;2.40;58.50;;;;;;4976947;28;20054;-74
2021/04/06 11:32:58;;;;;;;8.25;1.83;;;2.40;59.20;;;;;;4977075;28;20483;-73
2021/04/06 11:35:24;;;;;;;14.00;3.10;;;2.40;58.70;;;;;;4976508;28;20030;-74
2021/04/06 11:37:49;;;;;;;11.15;2.40;;;2.60;58.20;;;;;;4976480;28;20033;-73
2021/04/06 11:40:15;;;;;;;13.07;2.80;;;2.80;57.60;;;;;;4976591;28;20226;-75
2021/04/06 11:42:41;;;;;;;10.52;2.42;;;2.70;57.60;;;;;;4976439;28;20102;-74
2021/04/06 11:45:07;;;;;;;10.27;3.17;;;2.60;57.60;;;;;;4976349;28;20066;-75
2021/04/06 11:47:33;;;;;;;12.63;2.85;;;2.50;57.70;;;;;;4993662;28;20534;-75
2021/04/06 11:49:58;;;;;;;11.95;2.40;;;2.50;57.70;;;;;;4976209;28;20129;-74
2021/04/06 11:52:24;;;;;;;9.70;2.13;;;2.70;56.90;;;;;;4976416;28;20045;-74
2021/04/06 11:54:50;;;;;;;11.77;2.92;;;2.60;55.90;;;;;;4976297;28;20494;-75
2021/04/06 11:57:15;;;;;;;13.30;3.30;;;2.70;56.20;;;;;;4993887;28;20034;-74
2021/04/06 11:59:41;;;;;;;17.52;3.13;;;3.00;55.70;;;;;;4995423;28;20112;-74
2021/04/06 12:02:07;;;;;;;12.82;2.78;;;3.00;54.10;;;;;;4995656;28;20025;-74
2021/04/06 12:04:33;;;;;;;12.27;2.70;;;3.10;53.80;;;;;;4995333;28;20438;-74
2021/04/06 12:06:59;;;;;;;9.93;2.45;;;3.20;53.80;;;;;;5013265;28;20057;-74
2021/04/06 12:09:24;;;;;;;12.82;3.13;;;3.30;54.00;;;;;;4995547;28;20150;-74
2021/04/06 12:11:50;;;;;;;13.25;3.80;;;3.30;53.70;;;;;;5013155;28;20026;-75
2021/04/06 12:14:15;;;;;;;9.70;2.92;;;3.40;53.60;;;;;;5013127;28;20021;-74
2021/04/06 12:16:41;;;;;;;8.80;2.15;;;3.50;53.60;;;;;;4995316;28;20391;-75
2021/04/06 12:19:06;;;;;;;12.27;2.30;;;3.90;51.90;;;;;;4995288;28;20112;-75
2021/04/06 12:21:32;;;;;;;8.63;2.67;;;3.90;51.00;;;;;;4979051;28;20389;-73
2021/04/06 12:23:58;;;;;;;12.85;2.80;;;3.80;50.80;;;;;;5011534;28;20080;-74
2021/04/06 12:26:23;;;;;;;10.55;2.58;;;3.80;51.40;;;;;;5012964;28;20428;-74
2021/04/06 12:28:49;;;;;;;7.22;1.80;;;3.90;52.00;;;;;;5012577;28;20070;-74
2021/04/06 12:31:15;;;;;;;8.05;2.00;;;4.00;51.70;;;;;;4994954;28;20125;-74
2021/04/06 12:33:42;;;;;;;7.13;2.35;;;4.00;51.20;;;;;;4995094;28;20022;-75
2021/04/06 12:36:08;;;;;;;8.88;2.30;;;4.50;50.00;;;;;;4994756;28;20073;-74
2021/04/06 12:38:34;;;;;;;11.75;2.00;;;4.90;50.00;;;;;;4994584;28;20018;-75
2021/04/06 12:41:00;;;;;;;7.07;1.92;;;5.30;48.40;;;;;;4994595;28;20089;-75
2021/04/06 12:43:25;;;;;;;8.00;1.92;;;5.60;47.50;;;;;;4993695;28;20037;-74
2021/04/06 12:45:51;;;;;;;5.88;1.58;;;5.40;47.00;;;;;;4994311;28;20045;-75
2021/04/06 12:48:17;;;;;;;7.57;1.70;;;5.60;46.50;;;;;;4994745;28;20029;-75
2021/04/06 12:50:42;;;;;;;6.05;1.80;;;5.40;45.60;;;;;;4994795;28;20386;-75
2021/04/06 12:53:08;;;;;;;5.50;1.90;;;5.40;46.20;;;;;;4994972;28;20033;-74
2021/04/06 12:55:33;;;;;;;8.90;2.03;;;4.90;45.30;;;;;;5012390;28;20048;-74
2021/04/06 12:57:59;;;;;;;6.05;1.85;;;4.40;46.00;;;;;;4994754;28;20045;-74